sensor_id;sensor_type;location;lat;lon;timestamp;P1;durP1;ratioP1;P2;durP2;ratioP2
25237;SDS011;13185;50.872;5.306;2023-05-10T00:00:47;6.00;;;5.40;;
25237;SDS011;13185;50.872;5.306;2023-05-10T00:03:12;8.15;;;4.63;;
25237;SDS011;13185;50.872;5.306;2023-05-10T00:05:38;6.13;;;4.85;;
25237;SDS011;13185;50.872;5.306;2023-05-10T00:08:03;5.82;;;5.15;;
25237;SDS011;13185;50.872;5.306;2023-05-10T00:10:29;6.05;;;4.95;;
25237;SDS011;13185;50.872;5.306;2023-05-10T00:12:55;6.78;;;5.13;;
25237;SDS011;13185;50.872;5.306;2023-05-10T00:15:20;5.95;;;4.82;;
25237;SDS011;13185;50.872;5.306;2023-05-10T00:17:46;5.82;;;5.22;;
25237;SDS011;13185;50.872;5.306;2023-05-10T00:20:11;6.45;;;4.78;;
25237;SDS011;13185;50.872;5.306;2023-05-10T00:22:37;5.25;;;4.75;;
25237;SDS011;13185;50.872;5.306;2023-05-10T00:25:03;5.63;;;5.03;;
25237;SDS011;13185;50.872;5.306;2023-05-10T00:27:28;7.93;;;5.80;;
25237;SDS011;13185;50.872;5.306;2023-05-10T00:29:54;7.85;;;5.30;;
25237;SDS011;13185;50.872;5.306;2023-05-10T00:32:19;6.78;;;5.10;;
25237;SDS011;13185;50.872;5.306;2023-05-10T00:34:45;8.30;;;5.20;;
25237;SDS011;13185;50.872;5.306;2023-05-10T00:37:11;6.22;;;4.93;;
25237;SDS011;13185;50.872;5.306;2023-05-10T00:39:36;6.13;;;4.85;;
25237;SDS011;13185;50.872;5.306;2023-05-10T00:42:02;5.78;;;4.50;;
25237;SDS011;13185;50.872;5.306;2023-05-10T00:44:27;7.63;;;5.28;;
25237;SDS011;13185;50.872;5.306;2023-05-10T00:46:53;6.45;;;5.60;;
25237;SDS011;13185;50.872;5.306;2023-05-10T00:49:19;7.88;;;5.45;;
25237;SDS011;13185;50.872;5.306;2023-05-10T00:51:45;8.38;;;5.55;;
25237;SDS011;13185;50.872;5.306;2023-05-10T00:54:11;7.60;;;5.55;;
25237;SDS011;13185;50.872;5.306;2023-05-10T00:56:39;8.18;;;5.18;;
25237;SDS011;13185;50.872;5.306;2023-05-10T00:59:05;9.30;;;5.78;;
25237;SDS011;13185;50.872;5.306;2023-05-10T01:01:31;9.45;;;5.60;;
25237;SDS011;13185;50.872;5.306;2023-05-10T01:03:57;8.02;;;5.22;;
25237;SDS011;13185;50.872;5.306;2023-05-10T01:06:23;12.25;;;5.68;;
25237;SDS011;13185;50.872;5.306;2023-05-10T01:08:48;10.23;;;6.15;;
25237;SDS011;13185;50.872;5.306;2023-05-10T01:11:14;6.97;;;5.55;;
25237;SDS011;13185;50.872;5.306;2023-05-10T01:13:40;8.25;;;5.32;;
25237;SDS011;13185;50.872;5.306;2023-05-10T01:16:08;12.00;;;6.22;;
25237;SDS011;13185;50.872;5.306;2023-05-10T01:18:35;7.93;;;5.85;;
25237;SDS011;13185;50.872;5.306;2023-05-10T01:29:54;7.43;;;5.50;;
25237;SDS011;13185;50.872;5.306;2023-05-10T01:35:00;8.05;;;6.05;;
25237;SDS011;13185;50.872;5.306;2023-05-10T01:40:19;8.73;;;6.03;;
25237;SDS011;13185;50.872;5.306;2023-05-10T01:42:53;6.85;;;6.00;;
25237;SDS011;13185;50.872;5.306;2023-05-10T01:45:24;8.93;;;6.30;;
25237;SDS011;13185;50.872;5.306;2023-05-10T01:48:10;8.45;;;6.10;;
25237;SDS011;13185;50.872;5.306;2023-05-10T01:50:38;11.68;;;5.82;;
25237;SDS011;13185;50.872;5.306;2023-05-10T01:53:08;9.15;;;6.50;;
25237;SDS011;13185;50.872;5.306;2023-05-10T01:55:38;9.77;;;5.93;;
25237;SDS011;13185;50.872;5.306;2023-05-10T01:58:10;13.13;;;6.55;;
25237;SDS011;13185;50.872;5.306;2023-05-10T02:00:43;9.50;;;6.32;;
25237;SDS011;13185;50.872;5.306;2023-05-10T02:03:11;10.57;;;6.30;;
25237;SDS011;13185;50.872;5.306;2023-05-10T02:05:38;12.98;;;7.32;;
25237;SDS011;13185;50.872;5.306;2023-05-10T02:08:06;11.23;;;6.80;;
25237;SDS011;13185;50.872;5.306;2023-05-10T02:10:35;12.02;;;6.32;;
25237;SDS011;13185;50.872;5.306;2023-05-10T02:13:02;9.73;;;5.97;;
25237;SDS011;13185;50.872;5.306;2023-05-10T02:15:31;14.35;;;7.10;;
25237;SDS011;13185;50.872;5.306;2023-05-10T02:17:57;9.50;;;6.25;;
25237;SDS011;13185;50.872;5.306;2023-05-10T02:20:25;14.82;;;6.90;;
25237;SDS011;13185;50.872;5.306;2023-05-10T02:22:53;9.50;;;6.32;;
25237;SDS011;13185;50.872;5.306;2023-05-10T02:25:21;11.18;;;6.55;;
25237;SDS011;13185;50.872;5.306;2023-05-10T02:27:48;13.38;;;6.97;;
25237;SDS011;13185;50.872;5.306;2023-05-10T02:30:15;10.02;;;6.45;;
25237;SDS011;13185;50.872;5.306;2023-05-10T02:32:41;12.73;;;7.43;;
25237;SDS011;13185;50.872;5.306;2023-05-10T02:35:08;9.52;;;7.07;;
25237;SDS011;13185;50.872;5.306;2023-05-10T02:37:35;13.23;;;7.03;;
25237;SDS011;13185;50.872;5.306;2023-05-10T02:40:03;11.48;;;7.70;;
25237;SDS011;13185;50.872;5.306;2023-05-10T02:42:31;11.95;;;7.63;;
25237;SDS011;13185;50.872;5.306;2023-05-10T02:45:00;15.45;;;7.57;;
25237;SDS011;13185;50.872;5.306;2023-05-10T02:47:28;14.77;;;7.72;;
25237;SDS011;13185;50.872;5.306;2023-05-10T02:49:54;14.73;;;7.88;;
25237;SDS011;13185;50.872;5.306;2023-05-10T02:52:24;16.45;;;8.20;;
25237;SDS011;13185;50.872;5.306;2023-05-10T02:54:54;15.03;;;7.97;;
25237;SDS011;13185;50.872;5.306;2023-05-10T02:57:27;15.18;;;8.95;;
25237;SDS011;13185;50.872;5.306;2023-05-10T03:02:22;16.25;;;8.93;;
25237;SDS011;13185;50.872;5.306;2023-05-10T03:04:48;16.30;;;9.30;;
25237;SDS011;13185;50.872;5.306;2023-05-10T03:07:13;13.50;;;9.45;;
25237;SDS011;13185;50.872;5.306;2023-05-10T03:09:40;12.95;;;9.30;;
25237;SDS011;13185;50.872;5.306;2023-05-10T03:12:18;16.40;;;8.63;;
25237;SDS011;13185;50.872;5.306;2023-05-10T03:20:57;14.25;;;8.88;;
25237;SDS011;13185;50.872;5.306;2023-05-10T03:23:30;13.90;;;8.75;;
25237;SDS011;13185;50.872;5.306;2023-05-10T03:26:01;15.82;;;9.70;;
25237;SDS011;13185;50.872;5.306;2023-05-10T03:28:28;17.20;;;9.68;;
25237;SDS011;13185;50.872;5.306;2023-05-10T03:30:57;18.08;;;9.93;;
25237;SDS011;13185;50.872;5.306;2023-05-10T03:33:24;17.45;;;10.32;;
25237;SDS011;13185;50.872;5.306;2023-05-10T03:35:49;13.93;;;10.30;;
25237;SDS011;13185;50.872;5.306;2023-05-10T03:38:15;18.00;;;10.80;;
25237;SDS011;13185;50.872;5.306;2023-05-10T03:40:41;17.60;;;10.70;;
25237;SDS011;13185;50.872;5.306;2023-05-10T03:43:07;21.02;;;11.60;;
25237;SDS011;13185;50.872;5.306;2023-05-10T03:45:32;21.08;;;11.07;;
25237;SDS011;13185;50.872;5.306;2023-05-10T03:47:58;16.73;;;11.13;;
25237;SDS011;13185;50.872;5.306;2023-05-10T03:50:24;21.95;;;11.45;;
25237;SDS011;13185;50.872;5.306;2023-05-10T03:52:49;21.50;;;11.48;;
25237;SDS011;13185;50.872;5.306;2023-05-10T03:55:15;18.55;;;10.43;;
25237;SDS011;13185;50.872;5.306;2023-05-10T03:57:41;19.20;;;11.52;;
25237;SDS011;13185;50.872;5.306;2023-05-10T04:00:07;16.20;;;11.43;;
25237;SDS011;13185;50.872;5.306;2023-05-10T04:02:39;17.55;;;10.80;;
25237;SDS011;13185;50.872;5.306;2023-05-10T04:05:07;17.42;;;10.65;;
25237;SDS011;13185;50.872;5.306;2023-05-10T04:07:33;14.70;;;10.57;;
25237;SDS011;13185;50.872;5.306;2023-05-10T04:09:58;15.10;;;10.60;;
25237;SDS011;13185;50.872;5.306;2023-05-10T04:12:24;17.83;;;10.52;;
25237;SDS011;13185;50.872;5.306;2023-05-10T04:14:49;18.77;;;10.40;;
25237;SDS011;13185;50.872;5.306;2023-05-10T04:17:16;15.68;;;10.45;;
25237;SDS011;13185;50.872;5.306;2023-05-10T04:19:41;15.98;;;10.30;;
25237;SDS011;13185;50.872;5.306;2023-05-10T04:22:07;15.63;;;9.90;;
25237;SDS011;13185;50.872;5.306;2023-05-10T04:24:32;15.35;;;9.82;;
25237;SDS011;13185;50.872;5.306;2023-05-10T04:26:58;11.18;;;7.97;;
25237;SDS011;13185;50.872;5.306;2023-05-10T04:29:23;10.02;;;7.57;;
25237;SDS011;13185;50.872;5.306;2023-05-10T04:31:49;11.25;;;7.72;;
25237;SDS011;13185;50.872;5.306;2023-05-10T04:34:16;10.75;;;8.10;;
25237;SDS011;13185;50.872;5.306;2023-05-10T04:36:41;15.55;;;8.65;;
25237;SDS011;13185;50.872;5.306;2023-05-10T04:39:07;11.82;;;8.25;;
25237;SDS011;13185;50.872;5.306;2023-05-10T04:41:32;13.50;;;8.02;;
25237;SDS011;13185;50.872;5.306;2023-05-10T04:43:58;14.60;;;9.30;;
25237;SDS011;13185;50.872;5.306;2023-05-10T04:46:23;11.05;;;8.40;;
25237;SDS011;13185;50.872;5.306;2023-05-10T04:48:49;11.20;;;8.43;;
25237;SDS011;13185;50.872;5.306;2023-05-10T04:51:14;12.45;;;8.85;;
25237;SDS011;13185;50.872;5.306;2023-05-10T04:53:40;10.70;;;7.10;;
25237;SDS011;13185;50.872;5.306;2023-05-10T04:56:05;10.50;;;7.47;;
25237;SDS011;13185;50.872;5.306;2023-05-10T04:58:31;13.23;;;6.70;;
25237;SDS011;13185;50.872;5.306;2023-05-10T05:00:57;10.02;;;6.43;;
25237;SDS011;13185;50.872;5.306;2023-05-10T05:03:29;8.35;;;5.40;;
25237;SDS011;13185;50.872;5.306;2023-05-10T05:05:55;9.27;;;5.22;;
25237;SDS011;13185;50.872;5.306;2023-05-10T05:08:20;10.35;;;6.40;;
25237;SDS011;13185;50.872;5.306;2023-05-10T05:10:46;7.88;;;5.63;;
25237;SDS011;13185;50.872;5.306;2023-05-10T05:13:15;7.50;;;5.80;;
25237;SDS011;13185;50.872;5.306;2023-05-10T05:15:40;7.53;;;5.18;;
25237;SDS011;13185;50.872;5.306;2023-05-10T05:18:06;7.60;;;5.00;;
25237;SDS011;13185;50.872;5.306;2023-05-10T05:20:32;5.82;;;4.22;;
25237;SDS011;13185;50.872;5.306;2023-05-10T05:22:59;5.45;;;4.30;;
25237;SDS011;13185;50.872;5.306;2023-05-10T05:25:24;7.40;;;4.63;;
25237;SDS011;13185;50.872;5.306;2023-05-10T05:27:50;6.22;;;4.47;;
25237;SDS011;13185;50.872;5.306;2023-05-10T05:30:15;7.47;;;4.57;;
25237;SDS011;13185;50.872;5.306;2023-05-10T05:32:41;10.13;;;4.88;;
25237;SDS011;13185;50.872;5.306;2023-05-10T05:35:06;6.60;;;5.07;;
25237;SDS011;13185;50.872;5.306;2023-05-10T05:37:32;7.88;;;5.03;;
25237;SDS011;13185;50.872;5.306;2023-05-10T05:39:58;7.07;;;4.82;;
25237;SDS011;13185;50.872;5.306;2023-05-10T05:42:23;7.30;;;5.38;;
25237;SDS011;13185;50.872;5.306;2023-05-10T05:44:49;7.65;;;5.15;;
25237;SDS011;13185;50.872;5.306;2023-05-10T05:47:14;8.00;;;5.50;;
25237;SDS011;13185;50.872;5.306;2023-05-10T05:49:40;7.47;;;5.30;;
25237;SDS011;13185;50.872;5.306;2023-05-10T05:52:06;6.93;;;5.43;;
25237;SDS011;13185;50.872;5.306;2023-05-10T05:54:31;8.93;;;6.05;;
25237;SDS011;13185;50.872;5.306;2023-05-10T05:56:57;9.02;;;6.18;;
25237;SDS011;13185;50.872;5.306;2023-05-10T05:59:24;11.07;;;7.50;;
25237;SDS011;13185;50.872;5.306;2023-05-10T06:01:49;11.32;;;7.93;;
25237;SDS011;13185;50.872;5.306;2023-05-10T06:04:15;11.18;;;8.20;;
25237;SDS011;13185;50.872;5.306;2023-05-10T06:06:41;12.52;;;8.90;;
25237;SDS011;13185;50.872;5.306;2023-05-10T06:09:07;14.48;;;9.32;;
25237;SDS011;13185;50.872;5.306;2023-05-10T06:11:33;18.08;;;11.07;;
25237;SDS011;13185;50.872;5.306;2023-05-10T06:13:59;14.85;;;10.52;;
25237;SDS011;13185;50.872;5.306;2023-05-10T06:16:25;16.30;;;11.18;;
25237;SDS011;13185;50.872;5.306;2023-05-10T06:18:51;15.75;;;10.90;;
25237;SDS011;13185;50.872;5.306;2023-05-10T06:21:16;15.25;;;10.60;;
25237;SDS011;13185;50.872;5.306;2023-05-10T06:23:42;14.85;;;10.43;;
25237;SDS011;13185;50.872;5.306;2023-05-10T06:26:07;21.48;;;11.88;;
25237;SDS011;13185;50.872;5.306;2023-05-10T06:28:33;22.63;;;12.32;;
25237;SDS011;13185;50.872;5.306;2023-05-10T06:30:59;23.08;;;13.02;;
25237;SDS011;13185;50.872;5.306;2023-05-10T06:33:25;29.92;;;16.25;;
25237;SDS011;13185;50.872;5.306;2023-05-10T06:35:51;26.98;;;15.48;;
25237;SDS011;13185;50.872;5.306;2023-05-10T06:38:16;27.85;;;16.25;;
25237;SDS011;13185;50.872;5.306;2023-05-10T06:40:42;95.47;;;21.92;;
25237;SDS011;13185;50.872;5.306;2023-05-10T06:43:08;53.83;;;17.45;;
25237;SDS011;13185;50.872;5.306;2023-05-10T06:45:34;39.35;;;16.30;;
25237;SDS011;13185;50.872;5.306;2023-05-10T06:47:59;23.80;;;14.82;;
25237;SDS011;13185;50.872;5.306;2023-05-10T06:50:25;25.55;;;13.82;;
25237;SDS011;13185;50.872;5.306;2023-05-10T06:52:50;20.50;;;13.43;;
25237;SDS011;13185;50.872;5.306;2023-05-10T06:55:16;23.63;;;13.48;;
25237;SDS011;13185;50.872;5.306;2023-05-10T06:57:41;24.73;;;15.07;;
25237;SDS011;13185;50.872;5.306;2023-05-10T07:00:07;23.58;;;14.48;;
25237;SDS011;13185;50.872;5.306;2023-05-10T07:02:34;24.88;;;14.23;;
25237;SDS011;13185;50.872;5.306;2023-05-10T07:05:00;23.10;;;14.85;;
25237;SDS011;13185;50.872;5.306;2023-05-10T07:07:27;23.73;;;14.55;;
25237;SDS011;13185;50.872;5.306;2023-05-10T07:09:53;23.52;;;14.15;;
25237;SDS011;13185;50.872;5.306;2023-05-10T07:12:18;23.95;;;15.13;;
25237;SDS011;13185;50.872;5.306;2023-05-10T07:14:44;22.33;;;13.55;;
25237;SDS011;13185;50.872;5.306;2023-05-10T07:17:10;22.30;;;13.95;;
25237;SDS011;13185;50.872;5.306;2023-05-10T07:19:36;22.23;;;14.63;;
25237;SDS011;13185;50.872;5.306;2023-05-10T07:22:01;21.92;;;14.35;;
25237;SDS011;13185;50.872;5.306;2023-05-10T07:24:27;19.45;;;13.93;;
25237;SDS011;13185;50.872;5.306;2023-05-10T07:26:52;20.42;;;13.57;;
25237;SDS011;13185;50.872;5.306;2023-05-10T07:29:18;22.00;;;13.40;;
25237;SDS011;13185;50.872;5.306;2023-05-10T07:31:46;16.88;;;11.18;;
25237;SDS011;13185;50.872;5.306;2023-05-10T07:34:11;10.35;;;6.85;;
25237;SDS011;13185;50.872;5.306;2023-05-10T07:36:37;6.25;;;3.75;;
25237;SDS011;13185;50.872;5.306;2023-05-10T07:39:03;3.25;;;2.75;;
25237;SDS011;13185;50.872;5.306;2023-05-10T07:41:31;3.95;;;2.72;;
25237;SDS011;13185;50.872;5.306;2023-05-10T07:43:57;3.28;;;2.97;;
25237;SDS011;13185;50.872;5.306;2023-05-10T07:46:23;3.50;;;2.60;;
25237;SDS011;13185;50.872;5.306;2023-05-10T07:48:48;1.98;;;1.67;;
25237;SDS011;13185;50.872;5.306;2023-05-10T07:51:14;1.63;;;1.50;;
25237;SDS011;13185;50.872;5.306;2023-05-10T07:53:39;1.45;;;1.33;;
25237;SDS011;13185;50.872;5.306;2023-05-10T07:58:52;1.10;;;0.95;;
25237;SDS011;13185;50.872;5.306;2023-05-10T08:01:19;0.88;;;0.70;;
25237;SDS011;13185;50.872;5.306;2023-05-10T08:03:45;0.77;;;0.40;;
25237;SDS011;13185;50.872;5.306;2023-05-10T08:06:10;1.55;;;0.50;;
25237;SDS011;13185;50.872;5.306;2023-05-10T08:08:36;1.25;;;0.75;;
25237;SDS011;13185;50.872;5.306;2023-05-10T08:11:02;0.60;;;0.47;;
25237;SDS011;13185;50.872;5.306;2023-05-10T08:13:28;1.58;;;0.60;;
25237;SDS011;13185;50.872;5.306;2023-05-10T08:15:54;0.98;;;0.57;;
25237;SDS011;13185;50.872;5.306;2023-05-10T08:18:19;2.25;;;0.80;;
25237;SDS011;13185;50.872;5.306;2023-05-10T08:20:45;1.92;;;0.80;;
25237;SDS011;13185;50.872;5.306;2023-05-10T08:23:11;1.10;;;0.98;;
25237;SDS011;13185;50.872;5.306;2023-05-10T08:25:38;1.58;;;0.93;;
25237;SDS011;13185;50.872;5.306;2023-05-10T08:28:03;3.10;;;1.42;;
25237;SDS011;13185;50.872;5.306;2023-05-10T08:30:29;1.00;;;0.77;;
25237;SDS011;13185;50.872;5.306;2023-05-10T08:32:55;2.70;;;1.13;;
25237;SDS011;13185;50.872;5.306;2023-05-10T08:35:20;2.30;;;1.00;;
25237;SDS011;13185;50.872;5.306;2023-05-10T08:37:46;3.58;;;1.10;;
25237;SDS011;13185;50.872;5.306;2023-05-10T08:40:11;2.22;;;1.48;;
25237;SDS011;13185;50.872;5.306;2023-05-10T08:42:38;3.28;;;1.20;;
25237;SDS011;13185;50.872;5.306;2023-05-10T08:45:08;1.38;;;1.00;;
25237;SDS011;13185;50.872;5.306;2023-05-10T08:47:36;2.40;;;1.38;;
25237;SDS011;13185;50.872;5.306;2023-05-10T08:50:03;4.05;;;1.77;;
25237;SDS011;13185;50.872;5.306;2023-05-10T08:52:29;2.20;;;1.40;;
25237;SDS011;13185;50.872;5.306;2023-05-10T08:54:56;2.05;;;1.75;;
25237;SDS011;13185;50.872;5.306;2023-05-10T08:57:22;2.80;;;1.77;;
25237;SDS011;13185;50.872;5.306;2023-05-10T08:59:47;3.28;;;1.75;;
25237;SDS011;13185;50.872;5.306;2023-05-10T09:02:13;3.92;;;2.13;;
25237;SDS011;13185;50.872;5.306;2023-05-10T09:04:39;3.05;;;2.10;;
25237;SDS011;13185;50.872;5.306;2023-05-10T09:07:05;1.85;;;1.63;;
25237;SDS011;13185;50.872;5.306;2023-05-10T09:09:32;5.70;;;2.17;;
25237;SDS011;13185;50.872;5.306;2023-05-10T09:11:58;4.15;;;2.00;;
25237;SDS011;13185;50.872;5.306;2023-05-10T09:14:25;3.80;;;2.20;;
25237;SDS011;13185;50.872;5.306;2023-05-10T09:16:51;3.55;;;2.13;;
25237;SDS011;13185;50.872;5.306;2023-05-10T09:19:18;3.13;;;2.35;;
25237;SDS011;13185;50.872;5.306;2023-05-10T09:21:44;3.17;;;2.25;;
25237;SDS011;13185;50.872;5.306;2023-05-10T09:24:10;4.05;;;2.60;;
25237;SDS011;13185;50.872;5.306;2023-05-10T09:26:45;3.05;;;2.63;;
25237;SDS011;13185;50.872;5.306;2023-05-10T09:29:13;3.88;;;2.53;;
25237;SDS011;13185;50.872;5.306;2023-05-10T09:31:45;3.47;;;2.90;;
25237;SDS011;13185;50.872;5.306;2023-05-10T09:34:16;3.97;;;2.45;;
25237;SDS011;13185;50.872;5.306;2023-05-10T09:36:58;3.28;;;2.80;;
25237;SDS011;13185;50.872;5.306;2023-05-10T09:39:32;4.93;;;3.10;;
25237;SDS011;13185;50.872;5.306;2023-05-10T09:41:59;4.70;;;3.35;;
25237;SDS011;13185;50.872;5.306;2023-05-10T09:44:29;4.03;;;3.10;;
25237;SDS011;13185;50.872;5.306;2023-05-10T09:46:55;13.18;;;7.38;;
25237;SDS011;13185;50.872;5.306;2023-05-10T09:49:21;6.93;;;4.88;;
25237;SDS011;13185;50.872;5.306;2023-05-10T09:51:47;6.43;;;4.07;;
25237;SDS011;13185;50.872;5.306;2023-05-10T09:54:24;7.13;;;4.10;;
25237;SDS011;13185;50.872;5.306;2023-05-10T09:56:50;5.97;;;4.20;;
25237;SDS011;13185;50.872;5.306;2023-05-10T09:59:15;7.05;;;4.22;;
25237;SDS011;13185;50.872;5.306;2023-05-10T10:01:42;6.43;;;4.50;;
25237;SDS011;13185;50.872;5.306;2023-05-10T10:04:14;6.70;;;4.75;;
25237;SDS011;13185;50.872;5.306;2023-05-10T10:06:40;5.55;;;4.68;;
25237;SDS011;13185;50.872;5.306;2023-05-10T10:09:06;7.50;;;5.10;;
25237;SDS011;13185;50.872;5.306;2023-05-10T10:11:36;9.07;;;4.95;;
25237;SDS011;13185;50.872;5.306;2023-05-10T10:14:02;7.00;;;5.28;;
25237;SDS011;13185;50.872;5.306;2023-05-10T10:16:29;7.53;;;5.50;;
25237;SDS011;13185;50.872;5.306;2023-05-10T10:18:55;7.70;;;5.82;;
25237;SDS011;13185;50.872;5.306;2023-05-10T10:21:21;84.30;;;14.93;;
25237;SDS011;13185;50.872;5.306;2023-05-10T10:23:48;34.58;;;8.85;;
25237;SDS011;13185;50.872;5.306;2023-05-10T10:26:13;22.40;;;7.85;;
25237;SDS011;13185;50.872;5.306;2023-05-10T10:31:32;12.02;;;5.93;;
25237;SDS011;13185;50.872;5.306;2023-05-10T10:34:08;9.00;;;5.95;;
25237;SDS011;13185;50.872;5.306;2023-05-10T10:36:45;9.00;;;5.70;;
25237;SDS011;13185;50.872;5.306;2023-05-10T10:39:11;7.38;;;6.07;;
25237;SDS011;13185;50.872;5.306;2023-05-10T10:41:40;6.68;;;5.18;;
25237;SDS011;13185;50.872;5.306;2023-05-10T10:52:21;6.45;;;4.47;;
25237;SDS011;13185;50.872;5.306;2023-05-10T10:54:51;6.00;;;3.80;;
25237;SDS011;13185;50.872;5.306;2023-05-10T10:57:24;5.80;;;4.63;;
25237;SDS011;13185;50.872;5.306;2023-05-10T10:59:51;5.00;;;4.35;;
25237;SDS011;13185;50.872;5.306;2023-05-10T11:07:54;4.60;;;3.38;;
25237;SDS011;13185;50.872;5.306;2023-05-10T11:10:21;4.60;;;3.47;;
25237;SDS011;13185;50.872;5.306;2023-05-10T11:13:04;3.95;;;3.28;;
25237;SDS011;13185;50.872;5.306;2023-05-10T11:15:39;5.90;;;3.47;;
25237;SDS011;13185;50.872;5.306;2023-05-10T11:18:20;3.95;;;2.90;;
25237;SDS011;13185;50.872;5.306;2023-05-10T11:20:51;5.53;;;3.30;;
25237;SDS011;13185;50.872;5.306;2023-05-10T11:23:22;4.53;;;2.90;;
25237;SDS011;13185;50.872;5.306;2023-05-10T11:25:47;4.15;;;3.22;;
25237;SDS011;13185;50.872;5.306;2023-05-10T11:28:14;4.10;;;3.15;;
25237;SDS011;13185;50.872;5.306;2023-05-10T11:30:43;4.63;;;2.95;;
25237;SDS011;13185;50.872;5.306;2023-05-10T11:33:09;4.30;;;2.67;;
25237;SDS011;13185;50.872;5.306;2023-05-10T11:35:41;4.20;;;3.30;;
25237;SDS011;13185;50.872;5.306;2023-05-10T11:38:07;2.78;;;2.15;;
25237;SDS011;13185;50.872;5.306;2023-05-10T11:40:36;3.15;;;2.78;;
25237;SDS011;13185;50.872;5.306;2023-05-10T11:43:03;4.75;;;2.85;;
25237;SDS011;13185;50.872;5.306;2023-05-10T11:45:32;4.47;;;2.92;;
25237;SDS011;13185;50.872;5.306;2023-05-10T11:47:59;3.35;;;2.38;;
25237;SDS011;13185;50.872;5.306;2023-05-10T11:50:25;3.45;;;2.53;;
25237;SDS011;13185;50.872;5.306;2023-05-10T11:52:51;2.95;;;2.45;;
25237;SDS011;13185;50.872;5.306;2023-05-10T11:55:18;2.00;;;1.90;;
25237;SDS011;13185;50.872;5.306;2023-05-10T11:57:44;2.28;;;2.08;;
25237;SDS011;13185;50.872;5.306;2023-05-10T12:00:11;2.55;;;2.05;;
25237;SDS011;13185;50.872;5.306;2023-05-10T12:02:37;3.80;;;2.20;;
25237;SDS011;13185;50.872;5.306;2023-05-10T12:05:03;2.60;;;2.10;;
25237;SDS011;13185;50.872;5.306;2023-05-10T12:07:30;3.65;;;2.00;;
25237;SDS011;13185;50.872;5.306;2023-05-10T12:10:29;2.10;;;1.55;;
25237;SDS011;13185;50.872;5.306;2023-05-10T12:12:52;3.50;;;2.08;;
25237;SDS011;13185;50.872;5.306;2023-05-10T12:15:19;2.60;;;1.70;;
25237;SDS011;13185;50.872;5.306;2023-05-10T12:17:46;5.32;;;2.28;;
25237;SDS011;13185;50.872;5.306;2023-05-10T12:22:52;2.45;;;1.92;;
25237;SDS011;13185;50.872;5.306;2023-05-10T12:25:19;1.40;;;1.17;;
25237;SDS011;13185;50.872;5.306;2023-05-10T12:27:55;1.50;;;1.10;;
25237;SDS011;13185;50.872;5.306;2023-05-10T12:30:22;2.22;;;1.30;;
25237;SDS011;13185;50.872;5.306;2023-05-10T12:32:50;1.20;;;1.05;;
25237;SDS011;13185;50.872;5.306;2023-05-10T12:35:16;1.90;;;1.10;;
25237;SDS011;13185;50.872;5.306;2023-05-10T12:37:44;2.40;;;1.08;;
25237;SDS011;13185;50.872;5.306;2023-05-10T12:40:10;0.88;;;0.80;;
25237;SDS011;13185;50.872;5.306;2023-05-10T12:42:36;1.10;;;1.00;;
25237;SDS011;13185;50.872;5.306;2023-05-10T12:45:04;2.17;;;0.93;;
25237;SDS011;13185;50.872;5.306;2023-05-10T12:47:31;0.95;;;0.85;;
25237;SDS011;13185;50.872;5.306;2023-05-10T12:49:58;1.38;;;1.20;;
25237;SDS011;13185;50.872;5.306;2023-05-10T12:52:25;1.20;;;1.10;;
25237;SDS011;13185;50.872;5.306;2023-05-10T12:54:51;2.90;;;0.98;;
25237;SDS011;13185;50.872;5.306;2023-05-10T12:57:17;0.95;;;0.82;;
25237;SDS011;13185;50.872;5.306;2023-05-10T12:59:43;1.15;;;0.98;;
25237;SDS011;13185;50.872;5.306;2023-05-10T13:02:09;1.70;;;1.15;;
25237;SDS011;13185;50.872;5.306;2023-05-10T13:04:35;1.50;;;1.40;;
25237;SDS011;13185;50.872;5.306;2023-05-10T13:07:04;1.75;;;1.52;;
25237;SDS011;13185;50.872;5.306;2023-05-10T13:09:32;2.30;;;2.10;;
25237;SDS011;13185;50.872;5.306;2023-05-10T13:11:58;2.17;;;1.88;;
25237;SDS011;13185;50.872;5.306;2023-05-10T13:14:24;1.75;;;1.65;;
25237;SDS011;13185;50.872;5.306;2023-05-10T13:16:49;2.00;;;1.80;;
25237;SDS011;13185;50.872;5.306;2023-05-10T13:19:15;2.97;;;1.50;;
25237;SDS011;13185;50.872;5.306;2023-05-10T13:21:41;1.60;;;1.50;;
25237;SDS011;13185;50.872;5.306;2023-05-10T13:24:07;1.60;;;1.50;;
25237;SDS011;13185;50.872;5.306;2023-05-10T13:26:33;1.40;;;1.08;;
25237;SDS011;13185;50.872;5.306;2023-05-10T13:28:58;1.60;;;1.50;;
25237;SDS011;13185;50.872;5.306;2023-05-10T13:31:24;1.75;;;1.60;;
25237;SDS011;13185;50.872;5.306;2023-05-10T13:33:50;1.73;;;1.63;;
25237;SDS011;13185;50.872;5.306;2023-05-10T13:36:15;1.50;;;1.35;;
25237;SDS011;13185;50.872;5.306;2023-05-10T13:38:41;2.45;;;1.27;;
25237;SDS011;13185;50.872;5.306;2023-05-10T13:41:06;1.15;;;1.00;;
25237;SDS011;13185;50.872;5.306;2023-05-10T13:43:32;1.60;;;1.30;;
25237;SDS011;13185;50.872;5.306;2023-05-10T13:45:57;1.92;;;1.40;;
25237;SDS011;13185;50.872;5.306;2023-05-10T13:48:23;1.33;;;1.23;;
25237;SDS011;13185;50.872;5.306;2023-05-10T13:50:48;1.50;;;1.40;;
25237;SDS011;13185;50.872;5.306;2023-05-10T13:53:14;1.30;;;1.20;;
25237;SDS011;13185;50.872;5.306;2023-05-10T13:55:40;1.05;;;0.95;;
25237;SDS011;13185;50.872;5.306;2023-05-10T13:58:06;1.20;;;1.10;;
25237;SDS011;13185;50.872;5.306;2023-05-10T14:00:32;1.23;;;1.08;;
25237;SDS011;13185;50.872;5.306;2023-05-10T14:02:57;1.00;;;0.85;;
25237;SDS011;13185;50.872;5.306;2023-05-10T14:05:23;1.50;;;0.80;;
25237;SDS011;13185;50.872;5.306;2023-05-10T14:07:49;1.08;;;0.88;;
25237;SDS011;13185;50.872;5.306;2023-05-10T14:10:15;2.38;;;1.33;;
25237;SDS011;13185;50.872;5.306;2023-05-10T14:12:41;1.52;;;1.00;;
25237;SDS011;13185;50.872;5.306;2023-05-10T14:15:06;1.10;;;0.90;;
25237;SDS011;13185;50.872;5.306;2023-05-10T14:17:32;2.10;;;1.08;;
25237;SDS011;13185;50.872;5.306;2023-05-10T14:19:58;1.25;;;1.00;;
25237;SDS011;13185;50.872;5.306;2023-05-10T14:22:23;1.08;;;0.82;;
25237;SDS011;13185;50.872;5.306;2023-05-10T14:24:49;1.10;;;0.90;;
25237;SDS011;13185;50.872;5.306;2023-05-10T14:27:15;2.05;;;0.85;;
25237;SDS011;13185;50.872;5.306;2023-05-10T14:29:41;1.42;;;0.98;;
25237;SDS011;13185;50.872;5.306;2023-05-10T14:32:07;0.82;;;0.82;;
25237;SDS011;13185;50.872;5.306;2023-05-10T14:34:32;2.50;;;1.30;;
25237;SDS011;13185;50.872;5.306;2023-05-10T14:36:58;1.40;;;1.10;;
25237;SDS011;13185;50.872;5.306;2023-05-10T14:39:24;2.63;;;1.42;;
25237;SDS011;13185;50.872;5.306;2023-05-10T14:41:49;1.10;;;0.85;;
25237;SDS011;13185;50.872;5.306;2023-05-10T14:44:16;1.15;;;0.70;;
25237;SDS011;13185;50.872;5.306;2023-05-10T14:46:42;2.20;;;0.98;;
25237;SDS011;13185;50.872;5.306;2023-05-10T14:49:07;1.35;;;0.80;;
25237;SDS011;13185;50.872;5.306;2023-05-10T14:51:33;1.23;;;0.90;;
25237;SDS011;13185;50.872;5.306;2023-05-10T14:53:58;2.38;;;1.05;;
25237;SDS011;13185;50.872;5.306;2023-05-10T14:56:24;1.77;;;1.27;;
25237;SDS011;13185;50.872;5.306;2023-05-10T14:58:51;1.30;;;0.90;;
25237;SDS011;13185;50.872;5.306;2023-05-10T15:01:16;0.98;;;0.57;;
25237;SDS011;13185;50.872;5.306;2023-05-10T15:03:42;0.75;;;0.40;;
25237;SDS011;13185;50.872;5.306;2023-05-10T15:06:08;2.83;;;0.40;;
25237;SDS011;13185;50.872;5.306;2023-05-10T15:08:33;1.17;;;0.10;;
25237;SDS011;13185;50.872;5.306;2023-05-10T15:10:59;0.60;;;0.30;;
25237;SDS011;13185;50.872;5.306;2023-05-10T15:13:25;1.75;;;0.45;;
25237;SDS011;13185;50.872;5.306;2023-05-10T15:15:50;0.70;;;0.43;;
25237;SDS011;13185;50.872;5.306;2023-05-10T15:18:16;0.47;;;0.30;;
25237;SDS011;13185;50.872;5.306;2023-05-10T15:20:41;0.65;;;0.32;;
25237;SDS011;13185;50.872;5.306;2023-05-10T15:23:07;1.48;;;0.30;;